createdAt,value
2018-07-04T00:02:30.175Z,1.17
2018-07-04T00:05:22.896Z,1.40
2018-07-04T00:08:15.243Z,1.20
2018-07-04T00:11:07.813Z,1.07
2018-07-04T00:14:00.439Z,1.40
2018-07-04T00:16:53.108Z,1.40
2018-07-04T00:19:45.695Z,1.10
2018-07-04T00:22:38.204Z,1.23
2018-07-04T00:25:30.559Z,1.40
2018-07-04T00:28:23.071Z,1.07
2018-07-04T00:31:15.635Z,1.07
2018-07-04T00:34:08.316Z,1.10
2018-07-04T00:37:01.120Z,3.37
2018-07-04T00:39:53.573Z,1.20
2018-07-04T00:42:46.271Z,1.23
2018-07-04T00:45:38.884Z,1.40
2018-07-04T00:48:31.436Z,1.17
2018-07-04T00:51:24.036Z,1.43
2018-07-04T00:54:16.775Z,1.13
2018-07-04T00:57:09.257Z,1.30
2018-07-04T01:00:01.940Z,1.33
2018-07-04T01:02:55.008Z,1.17
2018-07-04T01:05:47.508Z,1.33
2018-07-04T01:08:40.048Z,1.30
2018-07-04T01:11:32.460Z,1.13
2018-07-04T01:14:25.874Z,1.30
2018-07-04T01:17:18.571Z,1.30
2018-07-04T01:20:11.183Z,1.20
2018-07-04T01:23:03.736Z,1.40
2018-07-04T01:25:56.362Z,1.50
2018-07-04T01:28:50.069Z,1.30
2018-07-04T01:31:42.816Z,1.10
2018-07-04T01:34:35.456Z,1.27
2018-07-04T01:37:27.875Z,1.30
2018-07-04T01:40:20.547Z,1.50
2018-07-04T01:43:13.148Z,1.33
2018-07-04T01:46:05.787Z,1.30
2018-07-04T01:48:58.442Z,1.13
2018-07-04T01:51:51.110Z,1.50
2018-07-04T01:54:43.743Z,1.33
2018-07-04T01:57:36.349Z,1.30
2018-07-04T02:00:29.092Z,1.50
2018-07-04T02:03:21.628Z,1.40
2018-07-04T02:06:14.383Z,1.40
2018-07-04T02:09:06.913Z,1.40
2018-07-04T02:11:59.416Z,1.50
2018-07-04T02:14:51.823Z,1.40
2018-07-04T02:17:44.279Z,1.43
2018-07-04T02:20:36.973Z,1.40
2018-07-04T02:23:29.438Z,1.50
2018-07-04T02:26:21.923Z,1.30
2018-07-04T02:29:14.553Z,1.33
2018-07-04T02:32:07.088Z,1.30
2018-07-04T02:35:00.250Z,1.53
2018-07-04T02:37:52.743Z,1.40
2018-07-04T02:40:45.366Z,1.40
2018-07-04T02:43:37.905Z,1.70
2018-07-04T02:46:35.971Z,1.57
2018-07-04T02:49:28.581Z,1.20
2018-07-04T02:52:21.125Z,1.37
2018-07-04T02:55:13.616Z,1.50
2018-07-04T02:58:07.349Z,1.30
2018-07-04T03:01:00.103Z,1.43
2018-07-04T03:03:52.892Z,1.47
2018-07-04T03:06:45.824Z,1.27
2018-07-04T03:09:38.264Z,1.43
2018-07-04T03:12:30.724Z,1.30
2018-07-04T03:15:23.342Z,1.43
2018-07-04T03:18:16.089Z,1.50
2018-07-04T03:21:08.903Z,5.37
2018-07-04T03:24:01.407Z,6.07
2018-07-04T03:26:48.020Z,5.77
2018-07-04T03:29:40.552Z,6.20
2018-07-04T03:32:33.408Z,5.47
2018-07-04T03:35:26.059Z,6.83
2018-07-04T03:38:18.675Z,4.90
2018-07-04T03:41:11.136Z,6.17
2018-07-04T03:44:03.872Z,6.97
2018-07-04T03:46:56.367Z,7.27
2018-07-04T03:49:48.878Z,6.63
2018-07-04T03:52:41.475Z,7.23
2018-07-04T03:55:33.931Z,7.27
2018-07-04T03:58:26.648Z,6.20
2018-07-04T04:01:19.059Z,6.83
2018-07-04T04:04:11.492Z,7.43
2018-07-04T04:07:04.136Z,5.00
2018-07-04T04:09:56.697Z,5.60
2018-07-04T04:12:49.207Z,5.73
2018-07-04T04:15:41.842Z,6.40
2018-07-04T04:18:28.491Z,6.63
2018-07-04T04:21:15.185Z,5.70
2018-07-04T04:24:07.656Z,6.83
2018-07-04T04:27:00.553Z,7.33
2018-07-04T04:29:47.295Z,6.77
2018-07-04T04:32:39.815Z,6.53
2018-07-04T04:35:32.421Z,7.80
2018-07-04T04:38:25.044Z,7.40
2018-07-04T04:41:17.448Z,7.57
2018-07-04T04:44:10.164Z,7.10
2018-07-04T04:47:02.752Z,6.77
2018-07-04T04:49:55.348Z,7.53
2018-07-04T04:52:47.931Z,4.83
2018-07-04T04:55:40.475Z,7.87
2018-07-04T04:58:33.179Z,8.27
2018-07-04T05:01:25.627Z,7.43
2018-07-04T05:04:12.331Z,7.30
2018-07-04T05:07:05.017Z,6.70
2018-07-04T05:09:57.707Z,7.20
2018-07-04T05:12:50.501Z,7.10
2018-07-04T05:15:43.262Z,7.17
2018-07-04T05:18:35.848Z,6.40
2018-07-04T05:21:28.648Z,7.27
2018-07-04T05:24:21.152Z,7.10
2018-07-04T05:27:13.684Z,6.73
2018-07-04T05:37:16.084Z,7.17
2018-07-04T05:40:09.145Z,7.57
2018-07-04T05:43:01.772Z,6.20
2018-07-04T05:45:54.472Z,7.63
2018-07-04T05:48:46.936Z,7.37
2018-07-04T05:51:39.379Z,6.53
2018-07-04T05:54:31.772Z,6.63
2018-07-04T05:57:24.624Z,7.17
2018-07-04T06:00:17.170Z,7.40
2018-07-04T06:03:09.771Z,6.90
2018-07-04T06:06:02.460Z,7.47
2018-07-04T06:08:55.007Z,4.67
2018-07-04T06:11:47.697Z,5.77
2018-07-04T06:14:40.272Z,6.60
2018-07-04T06:17:32.996Z,6.70
2018-07-04T06:20:25.575Z,7.03
2018-07-04T06:23:18.060Z,5.77
2018-07-04T06:26:10.693Z,7.00
2018-07-04T06:29:03.238Z,7.10
2018-07-04T06:31:55.941Z,6.47
2018-07-04T06:34:48.439Z,6.50
2018-07-04T06:37:40.079Z,6.73
2018-07-04T06:40:13.912Z,6.57
2018-07-04T06:42:47.943Z,6.50
2018-07-04T06:45:21.864Z,6.67
2018-07-04T06:47:55.708Z,6.63
2018-07-04T06:50:29.829Z,6.17
2018-07-04T06:53:03.772Z,5.57
2018-07-04T06:55:37.600Z,7.10
2018-07-04T06:58:11.461Z,7.77
2018-07-04T07:00:45.444Z,7.20
2018-07-04T07:03:31.666Z,7.37
2018-07-04T07:06:24.464Z,6.93
2018-07-04T07:09:17.048Z,6.97
2018-07-04T07:12:09.754Z,6.03
2018-07-04T07:15:02.588Z,6.67
2018-07-04T07:17:55.120Z,6.80
2018-07-04T07:20:47.723Z,6.63
2018-07-04T07:23:40.166Z,7.03
2018-07-04T07:26:32.800Z,6.83
2018-07-04T07:29:25.360Z,6.00
2018-07-04T07:32:18.087Z,5.67
2018-07-04T07:35:10.576Z,6.33
2018-07-04T07:38:03.578Z,5.20
2018-07-04T07:40:56.351Z,5.30
2018-07-04T07:43:48.797Z,5.30
2018-07-04T07:46:41.497Z,4.80
2018-07-04T07:49:34.064Z,4.83
2018-07-04T07:52:26.637Z,3.57
2018-07-04T07:55:19.343Z,4.27
2018-07-04T07:58:11.951Z,5.17
2018-07-04T08:01:04.695Z,4.63
2018-07-04T08:03:57.254Z,4.50
2018-07-04T08:06:49.916Z,4.40
2018-07-04T08:09:42.436Z,4.33
2018-07-04T08:12:34.765Z,3.93
2018-07-04T08:15:27.128Z,3.47
2018-07-04T08:18:19.733Z,4.20
2018-07-04T08:21:12.191Z,4.10
2018-07-04T08:24:04.640Z,3.73
2018-07-04T08:26:57.217Z,3.87
2018-07-04T08:29:49.812Z,4.47
2018-07-04T08:32:42.299Z,4.00
2018-07-04T08:35:34.960Z,3.60
2018-07-04T08:38:27.392Z,3.90
2018-07-04T08:41:19.868Z,3.10
2018-07-04T08:44:12.386Z,3.70
2018-07-04T08:47:04.949Z,3.83
2018-07-04T08:49:57.438Z,4.10
2018-07-04T08:52:49.916Z,3.17
2018-07-04T08:55:42.475Z,4.27
2018-07-04T08:58:35.127Z,3.10
2018-07-04T09:04:33.703Z,3.97
2018-07-04T09:07:26.207Z,3.70
2018-07-04T09:10:18.707Z,4.50
2018-07-04T09:13:11.359Z,3.00
2018-07-04T09:16:04.056Z,3.50
2018-07-04T09:18:56.659Z,3.37
2018-07-04T09:21:49.168Z,2.53
2018-07-04T09:24:41.986Z,3.10
2018-07-04T09:27:34.469Z,2.70
2018-07-04T09:30:27.207Z,3.33
2018-07-04T09:33:13.805Z,2.67
2018-07-04T09:36:06.453Z,2.50
2018-07-04T09:38:58.928Z,3.27
2018-07-04T09:41:51.540Z,2.63
2018-07-04T09:44:44.011Z,3.00
2018-07-04T09:47:36.470Z,2.30
2018-07-04T09:50:29.175Z,2.67
2018-07-04T09:53:21.885Z,3.37
2018-07-04T09:56:14.488Z,3.50
2018-07-04T09:59:07.051Z,3.67
2018-07-04T10:01:59.691Z,3.23
2018-07-04T10:04:52.232Z,2.70
2018-07-04T10:07:44.671Z,2.33
2018-07-04T10:10:37.176Z,3.10
2018-07-04T10:13:29.816Z,2.60
2018-07-04T10:16:22.388Z,3.03
2018-07-04T10:19:15.116Z,3.30
2018-07-04T10:22:07.836Z,2.63
2018-07-04T10:25:00.457Z,3.57
2018-07-04T10:27:53.082Z,2.27
2018-07-04T10:30:45.531Z,2.90
2018-07-04T10:33:38.134Z,3.30
2018-07-04T10:36:30.744Z,2.97
2018-07-04T10:39:23.496Z,2.50
2018-07-04T10:42:15.932Z,2.93
2018-07-04T10:45:08.511Z,2.60
2018-07-04T10:48:02.021Z,2.57
2018-07-04T10:50:54.633Z,2.73
2018-07-04T10:53:47.344Z,3.67
2018-07-04T10:56:40.059Z,3.30
2018-07-04T10:59:26.499Z,2.20
2018-07-04T11:02:19.040Z,3.17
2018-07-04T11:05:11.585Z,2.13
2018-07-04T11:08:04.132Z,2.33
2018-07-04T11:10:56.579Z,3.00
2018-07-04T11:13:49.344Z,2.37
2018-07-04T11:16:42.040Z,2.43
2018-07-04T11:19:34.583Z,2.10
2018-07-04T11:22:27.396Z,1.80
2018-07-04T11:25:19.839Z,2.43
2018-07-04T11:28:12.468Z,3.43
2018-07-04T11:31:04.892Z,2.00
2018-07-04T11:33:57.331Z,3.10
2018-07-04T11:36:49.985Z,2.47
2018-07-04T11:39:42.788Z,2.90
2018-07-04T11:42:35.280Z,2.60
2018-07-04T11:45:22.073Z,1.93
2018-07-04T11:48:02.567Z,2.47
2018-07-04T11:50:36.296Z,2.00
2018-07-04T11:53:10.260Z,2.53
2018-07-04T11:55:44.089Z,1.90
2018-07-04T11:58:17.848Z,2.10
2018-07-04T12:00:51.766Z,2.40
2018-07-04T12:03:25.611Z,2.33
2018-07-04T12:06:11.896Z,2.20
2018-07-04T12:08:52.192Z,2.53
2018-07-04T12:11:26.000Z,2.53
2018-07-04T12:13:59.820Z,3.23
2018-07-04T12:16:35.132Z,2.73
2018-07-04T12:19:08.916Z,3.57
2018-07-04T12:21:42.856Z,2.60
2018-07-04T12:24:16.920Z,3.20
2018-07-04T12:26:50.827Z,2.73
2018-07-04T12:29:24.612Z,2.50
2018-07-04T12:31:58.601Z,2.60
2018-07-04T12:34:32.612Z,2.70
2018-07-04T12:37:06.480Z,2.37
2018-07-04T12:39:40.288Z,2.67
2018-07-04T12:42:14.112Z,2.47
2018-07-04T12:44:48.077Z,2.93
2018-07-04T12:47:22.130Z,2.80
2018-07-04T12:49:56.152Z,2.50
2018-07-04T12:52:29.989Z,2.00
2018-07-04T12:55:16.357Z,2.70
2018-07-04T12:58:09.195Z,2.43
2018-07-04T13:01:01.740Z,2.60
2018-07-04T13:03:54.413Z,2.10
2018-07-04T13:06:47.023Z,2.57
2018-07-04T13:09:39.422Z,2.43
2018-07-04T13:12:31.820Z,2.10
2018-07-04T13:15:24.268Z,3.17
2018-07-04T13:18:17.052Z,2.27
2018-07-04T13:21:09.737Z,2.23
2018-07-04T13:24:02.465Z,2.20
2018-07-04T13:26:54.956Z,2.50
2018-07-04T13:29:47.628Z,3.50
2018-07-04T13:32:40.140Z,2.50
2018-07-04T13:35:32.848Z,2.40
2018-07-04T13:38:25.607Z,3.47
2018-07-04T13:41:18.005Z,2.63
2018-07-04T13:44:10.532Z,2.47
2018-07-04T13:47:02.971Z,2.57
2018-07-04T13:49:55.796Z,2.37
2018-07-04T13:52:48.372Z,2.90
2018-07-04T13:55:40.899Z,2.90
2018-07-04T13:58:33.352Z,2.60
2018-07-04T14:01:26.194Z,2.30
2018-07-04T14:04:18.712Z,2.50
2018-07-04T14:07:11.355Z,2.60
2018-07-04T14:10:03.948Z,2.47
2018-07-04T14:12:56.386Z,3.17
2018-07-04T14:15:49.005Z,3.30
2018-07-04T14:18:41.716Z,2.37
2018-07-04T14:21:28.651Z,2.93
2018-07-04T14:24:21.267Z,2.60
2018-07-04T14:27:13.727Z,2.20
2018-07-04T14:30:00.232Z,2.33
2018-07-04T14:32:52.868Z,2.20
2018-07-04T14:35:45.284Z,2.20
2018-07-04T14:38:38.060Z,2.67
2018-07-04T14:41:30.683Z,2.53
2018-07-04T14:44:23.431Z,2.80
2018-07-04T14:47:16.379Z,2.80
2018-07-04T14:50:09.225Z,2.60
2018-07-04T14:53:01.845Z,2.47
2018-07-04T14:55:54.560Z,2.43
2018-07-04T14:58:41.116Z,2.40
2018-07-04T15:01:33.587Z,2.50
2018-07-04T15:04:26.408Z,2.20
2018-07-04T15:07:18.892Z,2.37
2018-07-04T15:10:11.345Z,3.10
2018-07-04T15:13:03.984Z,2.80
2018-07-04T15:15:56.925Z,2.57
2018-07-04T15:18:49.413Z,2.63
2018-07-04T15:21:41.968Z,3.53
2018-07-04T15:24:34.654Z,2.57
2018-07-04T15:27:28.414Z,2.87
2018-07-04T15:30:14.855Z,2.57
2018-07-04T15:33:07.474Z,3.27
2018-07-04T15:35:54.407Z,3.30
2018-07-04T15:38:46.979Z,3.10
2018-07-04T15:41:39.643Z,3.37
2018-07-04T15:44:26.159Z,3.30
2018-07-04T15:47:18.633Z,3.30
2018-07-04T15:50:11.113Z,3.60
2018-07-04T15:53:04.147Z,3.00
2018-07-04T15:55:56.723Z,3.47
2018-07-04T15:58:49.330Z,3.50
2018-07-04T16:01:41.824Z,3.43
2018-07-04T16:04:34.395Z,3.50
2018-07-04T16:07:26.942Z,3.50
2018-07-04T16:10:19.453Z,4.17
2018-07-04T16:13:11.839Z,4.37
2018-07-04T16:16:04.396Z,3.73
2018-07-04T16:18:56.828Z,3.47
2018-07-04T16:21:49.471Z,3.43
2018-07-04T16:24:41.993Z,3.60
2018-07-04T16:27:34.621Z,3.30
2018-07-04T16:30:27.064Z,3.73
2018-07-04T16:33:19.560Z,3.77
2018-07-04T16:36:12.352Z,3.00
2018-07-04T16:39:05.529Z,3.90
2018-07-04T16:41:58.147Z,3.53
2018-07-04T16:44:50.570Z,3.03
2018-07-04T16:47:43.023Z,3.07
2018-07-04T16:50:35.603Z,3.13
2018-07-04T16:53:28.107Z,4.00
2018-07-04T16:56:20.669Z,3.17
2018-07-04T16:59:13.498Z,3.00
2018-07-04T17:02:06.079Z,3.43
2018-07-04T17:04:58.668Z,2.90
2018-07-04T17:07:51.264Z,3.00
2018-07-04T17:10:37.915Z,3.10
2018-07-04T17:13:30.496Z,2.70
2018-07-04T17:16:18.343Z,3.20
2018-07-04T17:19:11.009Z,3.67
2018-07-04T17:22:03.751Z,4.03
2018-07-04T17:24:56.500Z,3.30
2018-07-04T17:27:49.015Z,3.47
2018-07-04T17:30:41.508Z,3.43
2018-07-04T17:33:34.176Z,3.63
2018-07-04T17:36:26.836Z,3.40
2018-07-04T17:39:19.631Z,3.43
2018-07-04T17:42:12.199Z,3.23
2018-07-04T17:45:04.960Z,3.23
2018-07-04T17:47:57.558Z,3.23
2018-07-04T17:50:50.206Z,3.60
2018-07-04T17:53:42.727Z,3.07
2018-07-04T17:56:35.368Z,3.33
2018-07-04T17:59:28.007Z,3.30
2018-07-04T18:02:20.556Z,3.57
2018-07-04T18:05:13.383Z,3.40
2018-07-04T18:08:05.722Z,3.60
2018-07-04T18:10:58.399Z,3.10
2018-07-04T18:13:51.283Z,3.53
2018-07-04T18:16:43.919Z,3.20
2018-07-04T18:19:36.404Z,3.27
2018-07-04T18:22:23.091Z,3.60
2018-07-04T18:25:15.484Z,3.00
2018-07-04T18:28:08.116Z,3.50
2018-07-04T18:31:00.584Z,3.87
2018-07-04T18:33:52.984Z,3.53
2018-07-04T18:36:45.544Z,3.53
2018-07-04T18:39:38.323Z,3.37
2018-07-04T18:42:30.921Z,3.20
2018-07-04T18:45:23.416Z,3.70
2018-07-04T18:48:16.215Z,3.37
2018-07-04T18:51:08.628Z,3.10
2018-07-04T18:54:01.091Z,3.30
2018-07-04T18:56:53.608Z,2.60
2018-07-04T18:59:46.191Z,2.80
2018-07-04T19:02:39.779Z,2.87
2018-07-04T19:05:32.367Z,2.97
2018-07-04T19:08:25.210Z,2.80
2018-07-04T19:11:17.586Z,2.40
2018-07-04T19:14:10.215Z,2.47
2018-07-04T19:17:03.044Z,2.20
2018-07-04T19:19:55.623Z,2.67
2018-07-04T19:22:42.325Z,3.10
2018-07-04T19:25:35.060Z,3.30
2018-07-04T19:28:27.692Z,2.63
2018-07-04T19:31:20.321Z,2.27
2018-07-04T19:34:12.791Z,3.30
2018-07-04T19:37:05.374Z,2.47
2018-07-04T19:39:57.905Z,2.60
2018-07-04T19:42:50.499Z,2.40
2018-07-04T19:45:43.071Z,2.17
2018-07-04T19:48:29.663Z,2.17
2018-07-04T19:51:22.364Z,2.30
2018-07-04T19:54:14.967Z,2.20
2018-07-04T19:57:07.817Z,2.00
2018-07-04T20:00:00.212Z,2.30
2018-07-04T20:02:52.868Z,2.30
2018-07-04T20:05:45.419Z,2.40
2018-07-04T20:08:38.015Z,2.10
2018-07-04T20:11:30.600Z,1.90
2018-07-04T20:14:23.088Z,1.97
2018-07-04T20:17:15.750Z,2.03
2018-07-04T20:20:08.244Z,2.30
2018-07-04T20:23:00.789Z,2.07
2018-07-04T20:25:53.099Z,2.20
2018-07-04T20:28:45.653Z,2.47
2018-07-04T20:31:38.284Z,2.20
2018-07-04T20:34:30.585Z,2.70
2018-07-04T20:37:23.118Z,2.30
2018-07-04T20:40:15.688Z,2.27
2018-07-04T20:43:08.336Z,2.47
2018-07-04T20:46:01.114Z,2.30
2018-07-04T20:48:53.541Z,2.40
2018-07-04T20:51:40.335Z,2.63
2018-07-04T20:54:33.085Z,2.20
2018-07-04T20:57:25.524Z,2.20
2018-07-04T21:00:18.127Z,2.20
2018-07-04T21:03:10.660Z,2.20
2018-07-04T21:06:03.342Z,2.17
2018-07-04T21:08:55.816Z,2.47
2018-07-04T21:11:48.509Z,2.20
2018-07-04T21:14:40.849Z,2.20
2018-07-04T21:17:33.333Z,2.20
2018-07-04T21:20:25.696Z,1.93
2018-07-04T21:23:12.315Z,2.20
2018-07-04T21:26:05.060Z,2.20
2018-07-04T21:28:57.619Z,2.00
2018-07-04T21:31:50.367Z,2.20
2018-07-04T21:34:42.880Z,2.10
2018-07-04T21:37:35.584Z,2.00
2018-07-04T21:40:28.019Z,2.20
2018-07-04T21:43:20.456Z,2.00
2018-07-04T21:46:13.134Z,2.10
2018-07-04T21:49:05.675Z,2.00
2018-07-04T21:51:58.281Z,2.27
2018-07-04T21:54:50.740Z,2.23
2018-07-04T21:57:43.255Z,1.70
2018-07-04T22:00:35.874Z,1.97
2018-07-04T22:03:28.207Z,2.00
2018-07-04T22:06:20.763Z,2.00
2018-07-04T22:09:13.376Z,1.70
2018-07-04T22:12:05.861Z,2.00
2018-07-04T22:14:58.427Z,1.83
2018-07-04T22:17:50.984Z,1.80
2018-07-04T22:20:43.608Z,1.60
2018-07-04T22:23:36.471Z,1.80
2018-07-04T22:26:30.163Z,2.00
2018-07-04T22:29:22.694Z,1.97
2018-07-04T22:32:15.548Z,1.90
2018-07-04T22:35:08.184Z,1.70
2018-07-04T22:38:00.776Z,2.20
2018-07-04T22:40:53.224Z,1.97
2018-07-04T22:43:45.815Z,1.97
2018-07-04T22:46:38.268Z,1.70
2018-07-04T22:49:30.844Z,1.80
2018-07-04T22:52:23.248Z,1.77
2018-07-04T22:55:15.865Z,1.80
2018-07-04T22:58:08.252Z,1.80
2018-07-04T23:01:00.723Z,1.70
2018-07-04T23:03:53.224Z,1.67
2018-07-04T23:06:45.703Z,1.60
2018-07-04T23:09:38.144Z,1.80
2018-07-04T23:12:30.871Z,1.77
2018-07-04T23:15:23.355Z,1.60
2018-07-04T23:18:15.824Z,1.60
2018-07-04T23:21:08.628Z,1.60
2018-07-04T23:24:01.160Z,1.90
2018-07-04T23:26:53.847Z,1.67
2018-07-04T23:29:46.248Z,1.67
2018-07-04T23:32:39.003Z,1.70
2018-07-04T23:35:31.669Z,1.70
2018-07-04T23:38:24.244Z,1.50
2018-07-04T23:41:16.792Z,1.80
2018-07-04T23:44:09.271Z,2.00
2018-07-04T23:47:01.733Z,1.80
2018-07-04T23:49:54.460Z,1.67
2018-07-04T23:52:47.048Z,1.70
2018-07-04T23:55:39.588Z,1.50
2018-07-04T23:58:31.984Z,1.77
